Decoded Metar for CYPD (PORT HAWKESBURY in NS, CANADA) (IATA:YPD) | Meteo·Mobile Aviation Weather
aviador You're here:

CYPD Decoded Metar

PORT HAWKESBURY in NS, CANADA
Report Time2019-04-23 08:26:00
UTC Time2019-04-23 08:36:54
Flight Rules mvfr MVFR
Wind060° at 08 kt
W.Decomp.*RWY 11: 6.9 kt HW 4.1 kt LCW
Visibility8047 m
Phenomena:Light Rain
Mist
Clouds:Overcast 013 Hf
Ceiling1,300 ft
Temp04°C (ISA -10)
Dew Point04°C (100% RH)
AAT-0.2°C
QNH1022 hPa
Density Alt-1,063 ft
Elevation374 ft
Report Wrong Elevation
Raw Report
SPECI CYPD 230826Z AUTO 06008KT 5SM -RA BR OVC013 04/04 A3019 RMK SLP228=

Extra information for CYPD:More info

Metar Taf Metar & Taf Last 4 Metars F.Rules Stats Wind Profile Meteogram Temp Stats Airport Information Weather charts Add Link Nearby VenuesMetar ALERT Operation Metar Decoded Social comments